sensor_id;sensor_type;location;lat;lon;timestamp;P1;durP1;ratioP1;P2;durP2;ratioP2
28296;SDS011;62078;49.366;8.172;2023-04-15T08:55:31;5.50;;;1.90;;
28296;SDS011;62078;49.366;8.172;2023-04-15T09:32:55;7.35;;;3.58;;
28296;SDS011;62078;49.366;8.172;2023-04-15T09:35:22;6.00;;;3.13;;
28296;SDS011;62078;49.366;8.172;2023-04-15T09:37:50;7.50;;;3.53;;
28296;SDS011;62078;49.366;8.172;2023-04-15T09:43:04;6.32;;;3.58;;
28296;SDS011;62078;49.366;8.172;2023-04-15T09:45:32;10.00;;;3.78;;
28296;SDS011;62078;49.366;8.172;2023-04-15T09:48:00;7.32;;;3.92;;
28296;SDS011;62078;49.366;8.172;2023-04-15T09:50:42;6.35;;;3.67;;
28296;SDS011;62078;49.366;8.172;2023-04-15T09:53:09;10.95;;;3.53;;
28296;SDS011;62078;49.366;8.172;2023-04-15T09:55:38;9.95;;;3.65;;
28296;SDS011;62078;49.366;8.172;2023-04-15T09:58:23;6.25;;;3.70;;
28296;SDS011;62078;49.366;8.172;2023-04-15T10:00:51;12.05;;;4.13;;
28296;SDS011;62078;49.366;8.172;2023-04-15T10:03:22;9.73;;;4.47;;
28296;SDS011;62078;49.366;8.172;2023-04-15T10:05:53;10.52;;;5.00;;
28296;SDS011;62078;49.366;8.172;2023-04-15T10:08:25;9.27;;;3.88;;
28296;SDS011;62078;49.366;8.172;2023-04-15T10:10:52;7.22;;;3.83;;
28296;SDS011;62078;49.366;8.172;2023-04-15T10:13:19;8.10;;;3.80;;
28296;SDS011;62078;49.366;8.172;2023-04-15T10:18:26;8.13;;;3.67;;
28296;SDS011;62078;49.366;8.172;2023-04-15T10:20:53;6.13;;;3.30;;
28296;SDS011;62078;49.366;8.172;2023-04-15T10:23:21;5.78;;;3.08;;
28296;SDS011;62078;49.366;8.172;2023-04-15T10:25:48;10.13;;;3.92;;
28296;SDS011;62078;49.366;8.172;2023-04-15T10:28:18;8.63;;;3.85;;
28296;SDS011;62078;49.366;8.172;2023-04-15T10:30:44;6.53;;;3.38;;
28296;SDS011;62078;49.366;8.172;2023-04-15T10:33:12;6.82;;;3.80;;
28296;SDS011;62078;49.366;8.172;2023-04-15T10:35:38;5.95;;;2.72;;
28296;SDS011;62078;49.366;8.172;2023-04-15T10:41:01;5.32;;;2.75;;
28296;SDS011;62078;49.366;8.172;2023-04-15T10:43:46;5.72;;;2.80;;
28296;SDS011;62078;49.366;8.172;2023-04-15T10:46:17;7.18;;;3.00;;
28296;SDS011;62078;49.366;8.172;2023-04-15T10:48:52;6.95;;;2.50;;
28296;SDS011;62078;49.366;8.172;2023-04-15T10:51:28;6.22;;;2.30;;
28296;SDS011;62078;49.366;8.172;2023-04-15T10:53:56;6.75;;;2.50;;
28296;SDS011;62078;49.366;8.172;2023-04-15T10:56:23;7.80;;;2.15;;
28296;SDS011;62078;49.366;8.172;2023-04-15T10:58:50;5.82;;;2.05;;
28296;SDS011;62078;49.366;8.172;2023-04-15T11:01:18;4.55;;;2.33;;
28296;SDS011;62078;49.366;8.172;2023-04-15T11:03:47;6.20;;;2.67;;
28296;SDS011;62078;49.366;8.172;2023-04-15T11:06:13;6.82;;;2.45;;
28296;SDS011;62078;49.366;8.172;2023-04-15T11:08:53;4.03;;;2.25;;
28296;SDS011;62078;49.366;8.172;2023-04-15T11:11:50;5.65;;;2.50;;
28296;SDS011;62078;49.366;8.172;2023-04-15T11:14:27;9.90;;;3.20;;
28296;SDS011;62078;49.366;8.172;2023-04-15T11:16:53;5.65;;;2.63;;
28296;SDS011;62078;49.366;8.172;2023-04-15T11:19:19;6.30;;;2.90;;
28296;SDS011;62078;49.366;8.172;2023-04-15T11:21:45;5.05;;;2.72;;
28296;SDS011;62078;49.366;8.172;2023-04-15T11:24:11;5.30;;;2.40;;
28296;SDS011;62078;49.366;8.172;2023-04-15T11:26:50;6.43;;;3.28;;
28296;SDS011;62078;49.366;8.172;2023-04-15T11:29:27;7.65;;;3.45;;
28296;SDS011;62078;49.366;8.172;2023-04-15T11:32:07;7.85;;;2.40;;
28296;SDS011;62078;49.366;8.172;2023-04-15T11:34:34;8.98;;;2.53;;
28296;SDS011;62078;49.366;8.172;2023-04-15T11:37:03;8.00;;;3.50;;
28296;SDS011;62078;49.366;8.172;2023-04-15T11:39:30;6.05;;;2.90;;
28296;SDS011;62078;49.366;8.172;2023-04-15T11:41:56;6.97;;;2.90;;
28296;SDS011;62078;49.366;8.172;2023-04-15T11:44:22;6.07;;;2.22;;
28296;SDS011;62078;49.366;8.172;2023-04-15T11:46:48;4.93;;;2.65;;
28296;SDS011;62078;49.366;8.172;2023-04-15T11:49:29;5.63;;;2.00;;
28296;SDS011;62078;49.366;8.172;2023-04-15T11:51:58;5.78;;;2.45;;
28296;SDS011;62078;49.366;8.172;2023-04-15T11:54:24;4.90;;;2.05;;
28296;SDS011;62078;49.366;8.172;2023-04-15T11:56:50;5.45;;;2.45;;
28296;SDS011;62078;49.366;8.172;2023-04-15T11:59:18;5.70;;;2.80;;
28296;SDS011;62078;49.366;8.172;2023-04-15T12:01:44;6.90;;;2.40;;
28296;SDS011;62078;49.366;8.172;2023-04-15T12:06:43;8.57;;;2.35;;
28296;SDS011;62078;49.366;8.172;2023-04-15T12:09:12;5.55;;;1.55;;
28296;SDS011;62078;49.366;8.172;2023-04-15T12:11:46;5.72;;;2.22;;
28296;SDS011;62078;49.366;8.172;2023-04-15T12:16:47;5.75;;;2.13;;
28296;SDS011;62078;49.366;8.172;2023-04-15T12:19:15;5.72;;;2.00;;
28296;SDS011;62078;49.366;8.172;2023-04-15T12:21:47;6.25;;;1.70;;
28296;SDS011;62078;49.366;8.172;2023-04-15T12:24:14;4.07;;;1.65;;
28296;SDS011;62078;49.366;8.172;2023-04-15T12:26:48;9.65;;;2.63;;
28296;SDS011;62078;49.366;8.172;2023-04-15T12:29:16;7.03;;;2.38;;
28296;SDS011;62078;49.366;8.172;2023-04-15T12:31:49;7.57;;;2.60;;
28296;SDS011;62078;49.366;8.172;2023-04-15T12:34:16;6.68;;;2.50;;
28296;SDS011;62078;49.366;8.172;2023-04-15T12:37:04;7.22;;;3.05;;
28296;SDS011;62078;49.366;8.172;2023-04-15T12:39:34;6.43;;;3.15;;
28296;SDS011;62078;49.366;8.172;2023-04-15T12:42:03;6.35;;;2.60;;
28296;SDS011;62078;49.366;8.172;2023-04-15T12:44:30;8.88;;;3.17;;
28296;SDS011;62078;49.366;8.172;2023-04-15T12:46:57;8.18;;;2.80;;
28296;SDS011;62078;49.366;8.172;2023-04-15T12:49:23;7.72;;;2.88;;
28296;SDS011;62078;49.366;8.172;2023-04-15T12:51:51;6.65;;;2.80;;
28296;SDS011;62078;49.366;8.172;2023-04-15T12:54:18;5.25;;;3.22;;
28296;SDS011;62078;49.366;8.172;2023-04-15T12:56:45;5.93;;;2.60;;
28296;SDS011;62078;49.366;8.172;2023-04-15T12:59:13;7.63;;;3.20;;
28296;SDS011;62078;49.366;8.172;2023-04-15T13:01:39;5.72;;;2.35;;
28296;SDS011;62078;49.366;8.172;2023-04-15T13:04:05;6.00;;;2.67;;
28296;SDS011;62078;49.366;8.172;2023-04-15T13:06:31;8.55;;;2.50;;
28296;SDS011;62078;49.366;8.172;2023-04-15T13:08:58;5.25;;;2.63;;
28296;SDS011;62078;49.366;8.172;2023-04-15T13:11:25;6.55;;;2.08;;
28296;SDS011;62078;49.366;8.172;2023-04-15T13:13:51;5.97;;;2.17;;
28296;SDS011;62078;49.366;8.172;2023-04-15T13:16:17;6.57;;;2.28;;
28296;SDS011;62078;49.366;8.172;2023-04-15T13:18:43;4.20;;;1.55;;
28296;SDS011;62078;49.366;8.172;2023-04-15T13:21:12;6.10;;;1.50;;
28296;SDS011;62078;49.366;8.172;2023-04-15T13:23:38;5.68;;;1.40;;
28296;SDS011;62078;49.366;8.172;2023-04-15T13:26:05;4.25;;;1.15;;
28296;SDS011;62078;49.366;8.172;2023-04-15T13:28:31;5.10;;;1.38;;
28296;SDS011;62078;49.366;8.172;2023-04-15T13:30:56;4.38;;;1.45;;
28296;SDS011;62078;49.366;8.172;2023-04-15T13:33:22;6.32;;;1.60;;
28296;SDS011;62078;49.366;8.172;2023-04-15T13:35:48;5.80;;;1.38;;
28296;SDS011;62078;49.366;8.172;2023-04-15T13:38:14;4.20;;;1.30;;
28296;SDS011;62078;49.366;8.172;2023-04-15T13:40:40;5.03;;;1.52;;
28296;SDS011;62078;49.366;8.172;2023-04-15T13:43:06;3.95;;;0.95;;
28296;SDS011;62078;49.366;8.172;2023-04-15T13:45:32;4.75;;;1.23;;
28296;SDS011;62078;49.366;8.172;2023-04-15T13:47:58;5.15;;;1.27;;
28296;SDS011;62078;49.366;8.172;2023-04-15T13:50:25;6.05;;;1.23;;
28296;SDS011;62078;49.366;8.172;2023-04-15T13:52:51;6.68;;;1.52;;
28296;SDS011;62078;49.366;8.172;2023-04-15T13:55:17;4.35;;;1.20;;
28296;SDS011;62078;49.366;8.172;2023-04-15T13:57:43;4.00;;;1.10;;
28296;SDS011;62078;49.366;8.172;2023-04-15T14:00:09;4.05;;;1.20;;
28296;SDS011;62078;49.366;8.172;2023-04-15T14:02:35;3.67;;;1.00;;
28296;SDS011;62078;49.366;8.172;2023-04-15T14:05:01;6.97;;;0.90;;
28296;SDS011;62078;49.366;8.172;2023-04-15T14:07:28;5.13;;;1.00;;
28296;SDS011;62078;49.366;8.172;2023-04-15T14:09:55;1.52;;;0.70;;
28296;SDS011;62078;49.366;8.172;2023-04-15T14:12:21;1.92;;;0.40;;
28296;SDS011;62078;49.366;8.172;2023-04-15T14:14:47;3.17;;;0.80;;
28296;SDS011;62078;49.366;8.172;2023-04-15T14:17:13;2.03;;;0.75;;
28296;SDS011;62078;49.366;8.172;2023-04-15T14:19:38;1.80;;;0.60;;
28296;SDS011;62078;49.366;8.172;2023-04-15T14:22:04;2.17;;;0.50;;
28296;SDS011;62078;49.366;8.172;2023-04-15T14:24:30;0.93;;;0.32;;
28296;SDS011;62078;49.366;8.172;2023-04-15T14:26:57;0.98;;;0.43;;
28296;SDS011;62078;49.366;8.172;2023-04-15T14:29:23;1.95;;;0.60;;
28296;SDS011;62078;49.366;8.172;2023-04-15T14:31:49;0.77;;;0.30;;
28296;SDS011;62078;49.366;8.172;2023-04-15T14:34:15;1.27;;;0.50;;
28296;SDS011;62078;49.366;8.172;2023-04-15T14:36:41;4.15;;;0.68;;
28296;SDS011;62078;49.366;8.172;2023-04-15T14:39:08;2.92;;;0.65;;
28296;SDS011;62078;49.366;8.172;2023-04-15T14:41:35;2.13;;;0.50;;
28296;SDS011;62078;49.366;8.172;2023-04-15T14:44:01;1.15;;;0.60;;
28296;SDS011;62078;49.366;8.172;2023-04-15T14:46:30;1.75;;;0.50;;
28296;SDS011;62078;49.366;8.172;2023-04-15T14:48:57;2.45;;;0.70;;
28296;SDS011;62078;49.366;8.172;2023-04-15T14:51:23;1.90;;;0.70;;
28296;SDS011;62078;49.366;8.172;2023-04-15T14:53:50;1.38;;;0.73;;
28296;SDS011;62078;49.366;8.172;2023-04-15T14:56:16;2.17;;;0.65;;
28296;SDS011;62078;49.366;8.172;2023-04-15T14:58:42;1.17;;;0.40;;
28296;SDS011;62078;49.366;8.172;2023-04-15T15:01:08;2.08;;;0.60;;
28296;SDS011;62078;49.366;8.172;2023-04-15T15:03:34;1.77;;;0.50;;
28296;SDS011;62078;49.366;8.172;2023-04-15T15:06:00;2.05;;;0.60;;
28296;SDS011;62078;49.366;8.172;2023-04-15T15:08:26;4.13;;;0.70;;
28296;SDS011;62078;49.366;8.172;2023-04-15T15:10:52;1.95;;;0.70;;
28296;SDS011;62078;49.366;8.172;2023-04-15T15:13:18;5.07;;;0.60;;
28296;SDS011;62078;49.366;8.172;2023-04-15T15:15:48;4.20;;;1.02;;
28296;SDS011;62078;49.366;8.172;2023-04-15T15:18:14;2.78;;;0.95;;
28296;SDS011;62078;49.366;8.172;2023-04-15T15:20:43;2.35;;;1.10;;
28296;SDS011;62078;49.366;8.172;2023-04-15T15:23:08;2.28;;;1.10;;
28296;SDS011;62078;49.366;8.172;2023-04-15T15:25:35;1.95;;;1.10;;
28296;SDS011;62078;49.366;8.172;2023-04-15T15:28:00;2.72;;;0.98;;
28296;SDS011;62078;49.366;8.172;2023-04-15T15:30:26;6.80;;;1.17;;
28296;SDS011;62078;49.366;8.172;2023-04-15T15:32:52;1.80;;;1.00;;
28296;SDS011;62078;49.366;8.172;2023-04-15T15:35:18;3.28;;;1.20;;
28296;SDS011;62078;49.366;8.172;2023-04-15T15:37:46;2.72;;;1.10;;
28296;SDS011;62078;49.366;8.172;2023-04-15T15:40:12;2.63;;;1.20;;
28296;SDS011;62078;49.366;8.172;2023-04-15T15:42:38;2.50;;;1.30;;
28296;SDS011;62078;49.366;8.172;2023-04-15T15:45:04;3.92;;;1.23;;
28296;SDS011;62078;49.366;8.172;2023-04-15T15:47:30;2.38;;;1.20;;
28296;SDS011;62078;49.366;8.172;2023-04-15T15:49:56;2.92;;;1.27;;
28296;SDS011;62078;49.366;8.172;2023-04-15T15:52:22;3.47;;;1.30;;
28296;SDS011;62078;49.366;8.172;2023-04-15T15:54:48;3.53;;;1.40;;
28296;SDS011;62078;49.366;8.172;2023-04-15T15:57:14;2.25;;;1.00;;
28296;SDS011;62078;49.366;8.172;2023-04-15T15:59:40;2.72;;;0.90;;
28296;SDS011;62078;49.366;8.172;2023-04-15T16:02:10;2.30;;;1.13;;
28296;SDS011;62078;49.366;8.172;2023-04-15T16:04:38;1.77;;;0.73;;
28296;SDS011;62078;49.366;8.172;2023-04-15T16:07:04;3.20;;;1.15;;
28296;SDS011;62078;49.366;8.172;2023-04-15T16:09:31;1.38;;;0.75;;
28296;SDS011;62078;49.366;8.172;2023-04-15T16:11:57;1.52;;;0.50;;
28296;SDS011;62078;49.366;8.172;2023-04-15T16:14:23;1.55;;;0.60;;
28296;SDS011;62078;49.366;8.172;2023-04-15T16:16:50;2.55;;;0.70;;
28296;SDS011;62078;49.366;8.172;2023-04-15T16:19:17;2.17;;;0.60;;
28296;SDS011;62078;49.366;8.172;2023-04-15T16:21:44;2.13;;;0.98;;
28296;SDS011;62078;49.366;8.172;2023-04-15T16:24:13;1.73;;;1.13;;
28296;SDS011;62078;49.366;8.172;2023-04-15T16:26:39;1.70;;;0.82;;
28296;SDS011;62078;49.366;8.172;2023-04-15T16:29:05;4.10;;;1.15;;
28296;SDS011;62078;49.366;8.172;2023-04-15T16:31:31;1.40;;;0.80;;
28296;SDS011;62078;49.366;8.172;2023-04-15T16:33:58;1.92;;;0.93;;
28296;SDS011;62078;49.366;8.172;2023-04-15T16:36:24;4.55;;;1.00;;
28296;SDS011;62078;49.366;8.172;2023-04-15T16:38:51;2.20;;;0.75;;
28296;SDS011;62078;49.366;8.172;2023-04-15T16:41:17;2.72;;;0.70;;
28296;SDS011;62078;49.366;8.172;2023-04-15T16:43:43;1.55;;;0.70;;
28296;SDS011;62078;49.366;8.172;2023-04-15T16:46:09;4.80;;;1.00;;
28296;SDS011;62078;49.366;8.172;2023-04-15T16:48:36;5.05;;;0.80;;
28296;SDS011;62078;49.366;8.172;2023-04-15T16:51:01;2.05;;;0.82;;
28296;SDS011;62078;49.366;8.172;2023-04-15T16:53:27;5.47;;;0.80;;
28296;SDS011;62078;49.366;8.172;2023-04-15T16:55:53;4.35;;;0.93;;
28296;SDS011;62078;49.366;8.172;2023-04-15T16:58:19;8.25;;;0.88;;
28296;SDS011;62078;49.366;8.172;2023-04-15T17:00:45;4.50;;;0.93;;
28296;SDS011;62078;49.366;8.172;2023-04-15T17:03:11;2.55;;;0.68;;
28296;SDS011;62078;49.366;8.172;2023-04-15T17:05:37;5.25;;;0.98;;
28296;SDS011;62078;49.366;8.172;2023-04-15T17:08:03;4.20;;;0.70;;
28296;SDS011;62078;49.366;8.172;2023-04-15T17:10:29;7.57;;;0.80;;
28296;SDS011;62078;49.366;8.172;2023-04-15T17:12:56;6.35;;;0.80;;
28296;SDS011;62078;49.366;8.172;2023-04-15T17:15:22;6.47;;;0.70;;
28296;SDS011;62078;49.366;8.172;2023-04-15T17:17:48;3.50;;;0.70;;
28296;SDS011;62078;49.366;8.172;2023-04-15T17:20:14;3.35;;;0.60;;
28296;SDS011;62078;49.366;8.172;2023-04-15T17:22:41;6.38;;;0.75;;
28296;SDS011;62078;49.366;8.172;2023-04-15T17:25:07;6.75;;;0.73;;
28296;SDS011;62078;49.366;8.172;2023-04-15T17:27:34;7.85;;;0.80;;
28296;SDS011;62078;49.366;8.172;2023-04-15T17:30:00;2.20;;;0.57;;
28296;SDS011;62078;49.366;8.172;2023-04-15T17:32:26;2.30;;;0.60;;
28296;SDS011;62078;49.366;8.172;2023-04-15T17:34:58;6.18;;;0.60;;
28296;SDS011;62078;49.366;8.172;2023-04-15T17:37:25;4.00;;;0.95;;
28296;SDS011;62078;49.366;8.172;2023-04-15T17:39:51;4.47;;;0.60;;
28296;SDS011;62078;49.366;8.172;2023-04-15T17:42:17;4.32;;;0.60;;
28296;SDS011;62078;49.366;8.172;2023-04-15T17:44:43;1.42;;;0.50;;
28296;SDS011;62078;49.366;8.172;2023-04-15T17:47:09;7.15;;;0.70;;
28296;SDS011;62078;49.366;8.172;2023-04-15T17:49:35;2.20;;;0.70;;
28296;SDS011;62078;49.366;8.172;2023-04-15T17:52:02;2.97;;;0.75;;
28296;SDS011;62078;49.366;8.172;2023-04-15T17:54:28;2.30;;;0.63;;
28296;SDS011;62078;49.366;8.172;2023-04-15T17:56:55;2.83;;;0.75;;
28296;SDS011;62078;49.366;8.172;2023-04-15T17:59:22;2.08;;;0.65;;
28296;SDS011;62078;49.366;8.172;2023-04-15T18:01:48;3.90;;;0.60;;
28296;SDS011;62078;49.366;8.172;2023-04-15T18:04:14;0.90;;;0.50;;
28296;SDS011;62078;49.366;8.172;2023-04-15T18:06:40;2.13;;;0.70;;
28296;SDS011;62078;49.366;8.172;2023-04-15T18:09:06;2.83;;;1.00;;
28296;SDS011;62078;49.366;8.172;2023-04-15T18:11:35;1.98;;;0.57;;
28296;SDS011;62078;49.366;8.172;2023-04-15T18:14:03;0.98;;;0.55;;
28296;SDS011;62078;49.366;8.172;2023-04-15T18:16:29;2.65;;;0.57;;
28296;SDS011;62078;49.366;8.172;2023-04-15T18:18:55;3.08;;;0.50;;
28296;SDS011;62078;49.366;8.172;2023-04-15T18:21:21;1.00;;;0.50;;
28296;SDS011;62078;49.366;8.172;2023-04-15T18:23:47;1.30;;;0.52;;
28296;SDS011;62078;49.366;8.172;2023-04-15T18:26:12;1.65;;;0.50;;
28296;SDS011;62078;49.366;8.172;2023-04-15T18:28:38;2.83;;;0.63;;
28296;SDS011;62078;49.366;8.172;2023-04-15T18:31:05;3.60;;;0.60;;
28296;SDS011;62078;49.366;8.172;2023-04-15T18:33:30;2.25;;;0.70;;
28296;SDS011;62078;49.366;8.172;2023-04-15T18:35:56;1.70;;;0.68;;
28296;SDS011;62078;49.366;8.172;2023-04-15T18:38:22;0.98;;;0.50;;
28296;SDS011;62078;49.366;8.172;2023-04-15T18:40:49;1.50;;;0.60;;
28296;SDS011;62078;49.366;8.172;2023-04-15T18:43:15;1.10;;;0.50;;
28296;SDS011;62078;49.366;8.172;2023-04-15T18:45:41;2.85;;;0.50;;
28296;SDS011;62078;49.366;8.172;2023-04-15T18:48:07;1.45;;;0.60;;
28296;SDS011;62078;49.366;8.172;2023-04-15T18:50:33;1.05;;;0.40;;
28296;SDS011;62078;49.366;8.172;2023-04-15T18:52:59;2.25;;;0.70;;
28296;SDS011;62078;49.366;8.172;2023-04-15T18:55:25;1.73;;;0.43;;
28296;SDS011;62078;49.366;8.172;2023-04-15T18:57:51;0.85;;;0.45;;
28296;SDS011;62078;49.366;8.172;2023-04-15T19:00:17;0.90;;;0.47;;
28296;SDS011;62078;49.366;8.172;2023-04-15T19:02:42;1.25;;;0.52;;
28296;SDS011;62078;49.366;8.172;2023-04-15T19:05:08;6.75;;;0.85;;
28296;SDS011;62078;49.366;8.172;2023-04-15T19:07:35;4.53;;;0.77;;
28296;SDS011;62078;49.366;8.172;2023-04-15T19:10:02;9.68;;;0.77;;
28296;SDS011;62078;49.366;8.172;2023-04-15T19:12:32;6.63;;;0.68;;
28296;SDS011;62078;49.366;8.172;2023-04-15T19:14:58;9.05;;;0.60;;
28296;SDS011;62078;49.366;8.172;2023-04-15T19:17:24;6.38;;;0.63;;
28296;SDS011;62078;49.366;8.172;2023-04-15T19:19:50;6.25;;;0.60;;
28296;SDS011;62078;49.366;8.172;2023-04-15T19:22:16;6.00;;;0.90;;
28296;SDS011;62078;49.366;8.172;2023-04-15T19:24:42;2.20;;;0.50;;
28296;SDS011;62078;49.366;8.172;2023-04-15T19:27:08;2.22;;;0.50;;
28296;SDS011;62078;49.366;8.172;2023-04-15T19:29:34;4.35;;;0.50;;
28296;SDS011;62078;49.366;8.172;2023-04-15T19:32:00;3.75;;;0.90;;
28296;SDS011;62078;49.366;8.172;2023-04-15T19:34:26;4.32;;;0.60;;
28296;SDS011;62078;49.366;8.172;2023-04-15T19:36:52;4.15;;;1.00;;
28296;SDS011;62078;49.366;8.172;2023-04-15T19:39:18;7.45;;;0.90;;
28296;SDS011;62078;49.366;8.172;2023-04-15T19:41:44;7.30;;;0.77;;
28296;SDS011;62078;49.366;8.172;2023-04-15T19:44:10;10.57;;;0.73;;
28296;SDS011;62078;49.366;8.172;2023-04-15T19:46:38;4.85;;;0.57;;
28296;SDS011;62078;49.366;8.172;2023-04-15T19:49:05;5.18;;;0.90;;
28296;SDS011;62078;49.366;8.172;2023-04-15T19:51:31;5.45;;;0.90;;
28296;SDS011;62078;49.366;8.172;2023-04-15T19:53:57;5.93;;;0.95;;
28296;SDS011;62078;49.366;8.172;2023-04-15T19:56:23;3.20;;;0.70;;
28296;SDS011;62078;49.366;8.172;2023-04-15T19:58:50;3.42;;;0.55;;
28296;SDS011;62078;49.366;8.172;2023-04-15T20:01:19;10.55;;;0.90;;
28296;SDS011;62078;49.366;8.172;2023-04-15T20:03:45;6.75;;;0.77;;
28296;SDS011;62078;49.366;8.172;2023-04-15T20:06:12;5.15;;;0.75;;
28296;SDS011;62078;49.366;8.172;2023-04-15T20:08:39;5.53;;;0.60;;
28296;SDS011;62078;49.366;8.172;2023-04-15T20:11:05;3.22;;;0.80;;
28296;SDS011;62078;49.366;8.172;2023-04-15T20:13:31;4.30;;;1.20;;
28296;SDS011;62078;49.366;8.172;2023-04-15T20:15:57;2.10;;;0.63;;
28296;SDS011;62078;49.366;8.172;2023-04-15T20:18:23;3.05;;;0.73;;
28296;SDS011;62078;49.366;8.172;2023-04-15T20:20:49;3.25;;;0.82;;
28296;SDS011;62078;49.366;8.172;2023-04-15T20:23:14;2.25;;;0.60;;
28296;SDS011;62078;49.366;8.172;2023-04-15T20:25:40;1.77;;;0.63;;
28296;SDS011;62078;49.366;8.172;2023-04-15T20:28:06;1.67;;;0.60;;
28296;SDS011;62078;49.366;8.172;2023-04-15T20:30:32;3.50;;;0.60;;
28296;SDS011;62078;49.366;8.172;2023-04-15T20:32:58;3.92;;;0.75;;
28296;SDS011;62078;49.366;8.172;2023-04-15T20:35:24;2.72;;;0.57;;
28296;SDS011;62078;49.366;8.172;2023-04-15T20:37:52;2.15;;;0.65;;
28296;SDS011;62078;49.366;8.172;2023-04-15T20:40:18;3.08;;;0.60;;
28296;SDS011;62078;49.366;8.172;2023-04-15T20:42:44;2.15;;;0.60;;
28296;SDS011;62078;49.366;8.172;2023-04-15T20:45:10;1.98;;;0.50;;
28296;SDS011;62078;49.366;8.172;2023-04-15T20:47:36;3.42;;;0.80;;
28296;SDS011;62078;49.366;8.172;2023-04-15T20:50:02;1.85;;;0.73;;
28296;SDS011;62078;49.366;8.172;2023-04-15T20:52:28;2.92;;;0.70;;
28296;SDS011;62078;49.366;8.172;2023-04-15T20:54:54;1.65;;;0.50;;
28296;SDS011;62078;49.366;8.172;2023-04-15T20:57:20;1.85;;;0.50;;
28296;SDS011;62078;49.366;8.172;2023-04-15T20:59:48;4.32;;;0.93;;
28296;SDS011;62078;49.366;8.172;2023-04-15T21:02:14;1.35;;;0.47;;
28296;SDS011;62078;49.366;8.172;2023-04-15T21:04:40;2.88;;;0.90;;
28296;SDS011;62078;49.366;8.172;2023-04-15T21:07:06;1.55;;;0.60;;
28296;SDS011;62078;49.366;8.172;2023-04-15T21:09:32;4.18;;;0.60;;
28296;SDS011;62078;49.366;8.172;2023-04-15T21:11:57;1.85;;;0.60;;
28296;SDS011;62078;49.366;8.172;2023-04-15T21:14:23;3.72;;;1.00;;
28296;SDS011;62078;49.366;8.172;2023-04-15T21:16:49;4.03;;;0.75;;
28296;SDS011;62078;49.366;8.172;2023-04-15T21:19:15;1.35;;;0.55;;
28296;SDS011;62078;49.366;8.172;2023-04-15T21:21:41;2.45;;;0.70;;
28296;SDS011;62078;49.366;8.172;2023-04-15T21:24:07;0.95;;;0.57;;
28296;SDS011;62078;49.366;8.172;2023-04-15T21:26:33;2.05;;;0.70;;
28296;SDS011;62078;49.366;8.172;2023-04-15T21:29:00;2.03;;;0.50;;
28296;SDS011;62078;49.366;8.172;2023-04-15T21:31:26;2.97;;;0.70;;
28296;SDS011;62078;49.366;8.172;2023-04-15T21:33:52;3.35;;;0.73;;
28296;SDS011;62078;49.366;8.172;2023-04-15T21:36:17;3.33;;;0.70;;
28296;SDS011;62078;49.366;8.172;2023-04-15T21:38:43;1.98;;;0.50;;
28296;SDS011;62078;49.366;8.172;2023-04-15T21:41:09;1.67;;;0.73;;
28296;SDS011;62078;49.366;8.172;2023-04-15T21:43:35;2.25;;;0.63;;
28296;SDS011;62078;49.366;8.172;2023-04-15T21:46:01;2.25;;;0.70;;
28296;SDS011;62078;49.366;8.172;2023-04-15T21:48:27;2.95;;;0.80;;
28296;SDS011;62078;49.366;8.172;2023-04-15T21:50:56;3.28;;;0.60;;
28296;SDS011;62078;49.366;8.172;2023-04-15T21:53:23;1.38;;;0.50;;
28296;SDS011;62078;49.366;8.172;2023-04-15T21:55:49;2.95;;;0.80;;
28296;SDS011;62078;49.366;8.172;2023-04-15T21:58:15;2.72;;;0.70;;
28296;SDS011;62078;49.366;8.172;2023-04-15T22:00:41;1.38;;;0.65;;
28296;SDS011;62078;49.366;8.172;2023-04-15T22:03:07;3.58;;;0.70;;
28296;SDS011;62078;49.366;8.172;2023-04-15T22:05:33;1.65;;;0.50;;
28296;SDS011;62078;49.366;8.172;2023-04-15T22:07:59;1.63;;;0.60;;
28296;SDS011;62078;49.366;8.172;2023-04-15T22:10:28;1.20;;;0.50;;
28296;SDS011;62078;49.366;8.172;2023-04-15T22:12:55;1.80;;;0.70;;
28296;SDS011;62078;49.366;8.172;2023-04-15T22:15:25;1.70;;;0.85;;
28296;SDS011;62078;49.366;8.172;2023-04-15T22:17:51;1.83;;;0.70;;
28296;SDS011;62078;49.366;8.172;2023-04-15T22:20:17;1.83;;;0.50;;
28296;SDS011;62078;49.366;8.172;2023-04-15T22:22:43;2.42;;;0.60;;
28296;SDS011;62078;49.366;8.172;2023-04-15T22:25:09;1.25;;;0.50;;
28296;SDS011;62078;49.366;8.172;2023-04-15T22:27:35;1.85;;;0.70;;
28296;SDS011;62078;49.366;8.172;2023-04-15T22:30:01;1.77;;;0.70;;
28296;SDS011;62078;49.366;8.172;2023-04-15T22:32:27;2.63;;;0.88;;
28296;SDS011;62078;49.366;8.172;2023-04-15T22:34:53;0.82;;;0.50;;
28296;SDS011;62078;49.366;8.172;2023-04-15T22:37:19;1.95;;;0.85;;
28296;SDS011;62078;49.366;8.172;2023-04-15T22:39:45;1.75;;;0.50;;
28296;SDS011;62078;49.366;8.172;2023-04-15T22:42:10;1.60;;;0.68;;
28296;SDS011;62078;49.366;8.172;2023-04-15T22:44:36;2.75;;;0.60;;
28296;SDS011;62078;49.366;8.172;2023-04-15T22:47:02;2.13;;;0.70;;
28296;SDS011;62078;49.366;8.172;2023-04-15T22:49:28;2.20;;;0.65;;
28296;SDS011;62078;49.366;8.172;2023-04-15T22:51:54;4.47;;;0.80;;
28296;SDS011;62078;49.366;8.172;2023-04-15T22:54:20;2.30;;;0.68;;
28296;SDS011;62078;49.366;8.172;2023-04-15T22:56:46;1.77;;;0.80;;
28296;SDS011;62078;49.366;8.172;2023-04-15T22:59:12;1.60;;;0.73;;
28296;SDS011;62078;49.366;8.172;2023-04-15T23:01:37;1.23;;;0.50;;
28296;SDS011;62078;49.366;8.172;2023-04-15T23:04:03;1.92;;;0.90;;
28296;SDS011;62078;49.366;8.172;2023-04-15T23:06:29;1.38;;;0.60;;
28296;SDS011;62078;49.366;8.172;2023-04-15T23:08:55;1.38;;;0.70;;
28296;SDS011;62078;49.366;8.172;2023-04-15T23:11:21;2.15;;;0.65;;
28296;SDS011;62078;49.366;8.172;2023-04-15T23:13:47;1.85;;;0.40;;
28296;SDS011;62078;49.366;8.172;2023-04-15T23:16:14;1.45;;;0.68;;
28296;SDS011;62078;49.366;8.172;2023-04-15T23:18:40;2.13;;;0.80;;
28296;SDS011;62078;49.366;8.172;2023-04-15T23:21:06;1.73;;;0.68;;
28296;SDS011;62078;49.366;8.172;2023-04-15T23:23:32;2.55;;;0.80;;
28296;SDS011;62078;49.366;8.172;2023-04-15T23:25:58;1.88;;;0.73;;
28296;SDS011;62078;49.366;8.172;2023-04-15T23:28:25;1.58;;;0.70;;
28296;SDS011;62078;49.366;8.172;2023-04-15T23:30:51;1.27;;;0.65;;
28296;SDS011;62078;49.366;8.172;2023-04-15T23:33:17;2.53;;;0.80;;
28296;SDS011;62078;49.366;8.172;2023-04-15T23:35:42;1.85;;;0.70;;
28296;SDS011;62078;49.366;8.172;2023-04-15T23:38:08;2.85;;;0.65;;
28296;SDS011;62078;49.366;8.172;2023-04-15T23:40:34;1.35;;;0.60;;
28296;SDS011;62078;49.366;8.172;2023-04-15T23:43:00;1.30;;;0.50;;
28296;SDS011;62078;49.366;8.172;2023-04-15T23:45:26;1.67;;;0.82;;
28296;SDS011;62078;49.366;8.172;2023-04-15T23:47:52;3.53;;;0.70;;
28296;SDS011;62078;49.366;8.172;2023-04-15T23:50:18;1.50;;;0.60;;
28296;SDS011;62078;49.366;8.172;2023-04-15T23:52:43;0.98;;;0.50;;
28296;SDS011;62078;49.366;8.172;2023-04-15T23:55:09;1.02;;;0.45;;
28296;SDS011;62078;49.366;8.172;2023-04-15T23:57:35;2.67;;;0.88;;
